sensor_id;sensor_type;location;lat;lon;timestamp;pressure;altitude;pressure_sealevel;temperature;humidity
46506;BME280;32220;49.808;9.968;2023-01-28T10:26:43;99921.19;;;2.53;90.96
46506;BME280;32220;49.808;9.968;2023-01-28T10:29:14;99937.09;;;3.00;86.33
46506;BME280;32220;49.808;9.968;2023-01-28T10:31:50;99939.72;;;3.55;83.91
46506;BME280;32220;49.808;9.968;2023-01-28T10:34:18;99959.69;;;4.10;82.39
46506;BME280;32220;49.808;9.968;2023-01-28T10:36:47;99962.63;;;4.39;80.80
46506;BME280;32220;49.808;9.968;2023-01-28T10:39:46;99962.63;;;4.39;75.72
46506;BME280;32220;49.808;9.968;2023-01-28T10:42:25;99990.34;;;4.52;73.99
46506;BME280;32220;49.808;9.968;2023-01-28T10:44:57;99962.31;;;4.54;74.30
46506;BME280;32220;49.808;9.968;2023-01-28T10:47:28;99981.19;;;4.72;73.79
46506;BME280;32220;49.808;9.968;2023-01-28T10:50:00;99943.19;;;4.49;72.96
46506;BME280;32220;49.808;9.968;2023-01-28T10:52:27;99965.31;;;4.79;73.34
46506;BME280;32220;49.808;9.968;2023-01-28T10:54:59;99975.63;;;4.87;72.34
46506;BME280;32220;49.808;9.968;2023-01-28T10:57:28;99983.84;;;4.70;71.51
46506;BME280;32220;49.808;9.968;2023-01-28T10:59:56;99994.88;;;4.86;71.48
46506;BME280;32220;49.808;9.968;2023-01-28T11:02:30;99982.63;;;4.86;70.84
46506;BME280;32220;49.808;9.968;2023-01-28T11:05:03;99996.50;;;4.93;70.19
46506;BME280;32220;49.808;9.968;2023-01-28T11:07:32;100001.81;;;4.90;69.65
46506;BME280;32220;49.808;9.968;2023-01-28T11:10:00;99980.94;;;4.84;69.85
46506;BME280;32220;49.808;9.968;2023-01-28T11:12:30;99982.50;;;4.94;70.28
46506;BME280;32220;49.808;9.968;2023-01-28T11:14:59;100004.19;;;5.02;70.15
46506;BME280;32220;49.808;9.968;2023-01-28T11:17:29;99974.66;;;4.91;69.67
46506;BME280;32220;49.808;9.968;2023-01-28T11:19:58;100001.59;;;4.99;68.62
46506;BME280;32220;49.808;9.968;2023-01-28T11:22:31;99985.81;;;5.02;69.60
46506;BME280;32220;49.808;9.968;2023-01-28T11:25:00;99988.22;;;5.11;70.02
46506;BME280;32220;49.808;9.968;2023-01-28T11:27:31;99999.78;;;5.02;67.39
46506;BME280;32220;49.808;9.968;2023-01-28T11:30:00;100008.38;;;5.09;68.17
46506;BME280;32220;49.808;9.968;2023-01-28T11:32:30;99991.16;;;4.96;68.45
46506;BME280;32220;49.808;9.968;2023-01-28T11:34:58;100009.47;;;4.99;67.92
46506;BME280;32220;49.808;9.968;2023-01-28T11:37:27;100015.47;;;5.05;68.31
46506;BME280;32220;49.808;9.968;2023-01-28T11:40:08;100014.47;;;5.11;68.04
46506;BME280;32220;49.808;9.968;2023-01-28T11:42:43;100000.69;;;5.01;67.79
46506;BME280;32220;49.808;9.968;2023-01-28T11:45:14;99996.97;;;5.10;66.96
46506;BME280;32220;49.808;9.968;2023-01-28T11:47:54;100007.53;;;5.07;66.05
46506;BME280;32220;49.808;9.968;2023-01-28T11:50:33;99993.66;;;5.02;66.41
46506;BME280;32220;49.808;9.968;2023-01-28T11:53:17;99985.59;;;5.11;66.87
46506;BME280;32220;49.808;9.968;2023-01-28T11:55:57;99996.84;;;5.18;66.36
46506;BME280;32220;49.808;9.968;2023-01-28T11:58:36;100007.13;;;5.27;66.06
46506;BME280;32220;49.808;9.968;2023-01-28T12:01:10;100002.56;;;5.33;66.40
46506;BME280;32220;49.808;9.968;2023-01-28T12:04:01;100003.72;;;5.22;65.51
46506;BME280;32220;49.808;9.968;2023-01-28T12:06:46;99966.38;;;5.09;65.13
46506;BME280;32220;49.808;9.968;2023-01-28T12:09:24;100001.22;;;5.17;64.07
46506;BME280;32220;49.808;9.968;2023-01-28T12:12:06;100002.94;;;5.18;64.23
46506;BME280;32220;49.808;9.968;2023-01-28T12:15:15;99992.56;;;5.12;64.41
46506;BME280;32220;49.808;9.968;2023-01-28T12:17:59;99977.22;;;4.94;64.03
46506;BME280;32220;49.808;9.968;2023-01-28T12:20:37;99999.13;;;4.93;64.06
46506;BME280;32220;49.808;9.968;2023-01-28T12:23:19;99954.25;;;4.63;64.13
46506;BME280;32220;49.808;9.968;2023-01-28T12:28:52;99971.28;;;4.84;64.61
46506;BME280;32220;49.808;9.968;2023-01-28T12:31:49;99993.78;;;4.96;64.00
46506;BME280;32220;49.808;9.968;2023-01-28T12:34:53;99978.34;;;4.82;64.68
46506;BME280;32220;49.808;9.968;2023-01-28T12:37:34;99969.50;;;4.86;64.97
46506;BME280;32220;49.808;9.968;2023-01-28T12:40:14;99966.75;;;4.94;64.64
46506;BME280;32220;49.808;9.968;2023-01-28T12:42:50;99958.69;;;5.01;64.36
46506;BME280;32220;49.808;9.968;2023-01-28T12:45:23;99962.91;;;5.07;64.87
46506;BME280;32220;49.808;9.968;2023-01-28T12:47:57;99983.56;;;5.22;64.91
46506;BME280;32220;49.808;9.968;2023-01-28T12:50:30;99970.03;;;5.02;63.27
46506;BME280;32220;49.808;9.968;2023-01-28T12:53:02;99965.66;;;5.02;62.97
46506;BME280;32220;49.808;9.968;2023-01-28T12:55:39;99978.59;;;5.10;63.84
46506;BME280;32220;49.808;9.968;2023-01-28T12:58:14;99975.28;;;5.02;63.76
46506;BME280;32220;49.808;9.968;2023-01-28T13:00:47;99954.34;;;4.99;64.55
46506;BME280;32220;49.808;9.968;2023-01-28T13:03:20;99950.25;;;4.87;63.71
46506;BME280;32220;49.808;9.968;2023-01-28T13:05:55;99969.44;;;4.89;63.47
46506;BME280;32220;49.808;9.968;2023-01-28T13:08:25;99978.88;;;4.98;63.98
46506;BME280;32220;49.808;9.968;2023-01-28T13:10:54;99970.28;;;4.91;63.43
46506;BME280;32220;49.808;9.968;2023-01-28T13:13:28;99983.34;;;4.94;63.77
46506;BME280;32220;49.808;9.968;2023-01-28T13:15:56;99969.53;;;4.85;63.56
46506;BME280;32220;49.808;9.968;2023-01-28T13:18:33;99967.06;;;4.79;63.65
46506;BME280;32220;49.808;9.968;2023-01-28T13:21:01;99966.22;;;4.77;63.33
46506;BME280;32220;49.808;9.968;2023-01-28T13:23:39;99982.56;;;4.89;64.03
46506;BME280;32220;49.808;9.968;2023-01-28T13:26:10;100002.06;;;4.78;62.53
46506;BME280;32220;49.808;9.968;2023-01-28T13:28:38;99983.09;;;4.65;63.07
46506;BME280;32220;49.808;9.968;2023-01-28T13:31:07;100000.59;;;4.64;62.72
46506;BME280;32220;49.808;9.968;2023-01-28T13:33:41;99991.88;;;4.62;62.65
46506;BME280;32220;49.808;9.968;2023-01-28T13:36:21;99976.44;;;4.47;62.91
46506;BME280;32220;49.808;9.968;2023-01-28T13:39:00;99967.56;;;4.54;63.68
46506;BME280;32220;49.808;9.968;2023-01-28T13:41:39;99981.81;;;4.41;62.39
46506;BME280;32220;49.808;9.968;2023-01-28T13:44:18;99993.03;;;4.48;63.02
46506;BME280;32220;49.808;9.968;2023-01-28T13:46:46;99982.81;;;4.34;62.74
46506;BME280;32220;49.808;9.968;2023-01-28T13:49:20;99995.66;;;4.48;62.75
46506;BME280;32220;49.808;9.968;2023-01-28T13:51:58;99987.88;;;4.45;62.79
46506;BME280;32220;49.808;9.968;2023-01-28T13:54:31;100008.63;;;4.57;62.97
46506;BME280;32220;49.808;9.968;2023-01-28T13:57:27;100028.63;;;4.62;62.05
46506;BME280;32220;49.808;9.968;2023-01-28T14:00:07;100014.78;;;4.54;62.06
46506;BME280;32220;49.808;9.968;2023-01-28T14:03:16;100016.66;;;4.48;61.40
46506;BME280;32220;49.808;9.968;2023-01-28T14:06:15;100040.22;;;4.51;61.47
46506;BME280;32220;49.808;9.968;2023-01-28T14:12:09;100063.34;;;4.29;58.96
46506;BME280;32220;49.808;9.968;2023-01-28T14:15:05;100042.25;;;4.33;60.26
46506;BME280;32220;49.808;9.968;2023-01-28T14:17:41;100048.34;;;4.37;61.14
46506;BME280;32220;49.808;9.968;2023-01-28T14:20:18;100042.31;;;4.32;61.83
46506;BME280;32220;49.808;9.968;2023-01-28T14:22:48;100053.56;;;4.37;60.93
46506;BME280;32220;49.808;9.968;2023-01-28T14:25:21;100052.13;;;4.21;60.04
46506;BME280;32220;49.808;9.968;2023-01-28T14:27:55;100049.59;;;4.16;60.33
46506;BME280;32220;49.808;9.968;2023-01-28T14:30:42;100067.78;;;4.24;60.14
46506;BME280;32220;49.808;9.968;2023-01-28T14:33:13;100057.25;;;4.27;60.24
46506;BME280;32220;49.808;9.968;2023-01-28T14:35:44;100068.63;;;4.27;59.94
46506;BME280;32220;49.808;9.968;2023-01-28T14:38:17;100076.50;;;4.26;60.27
46506;BME280;32220;49.808;9.968;2023-01-28T14:40:48;100083.47;;;4.27;60.30
46506;BME280;32220;49.808;9.968;2023-01-28T14:43:19;100036.88;;;3.93;59.87
